sensor_id;sensor_type;location;lat;lon;timestamp;P1;durP1;ratioP1;P2;durP2;ratioP2
4274;SDS011;2151;50.988;11.068;2023-01-24T00:02:26;185.20;;;25.50;;
4274;SDS011;2151;50.988;11.068;2023-01-24T00:04:52;187.00;;;25.90;;
4274;SDS011;2151;50.988;11.068;2023-01-24T00:07:19;188.47;;;26.13;;
4274;SDS011;2151;50.988;11.068;2023-01-24T00:09:47;186.50;;;24.50;;
4274;SDS011;2151;50.988;11.068;2023-01-24T00:12:14;189.47;;;26.40;;
4274;SDS011;2151;50.988;11.068;2023-01-24T00:14:40;191.83;;;25.40;;
4274;SDS011;2151;50.988;11.068;2023-01-24T00:17:07;185.83;;;25.10;;
4274;SDS011;2151;50.988;11.068;2023-01-24T00:19:34;175.67;;;24.67;;
4274;SDS011;2151;50.988;11.068;2023-01-24T00:22:03;185.53;;;24.80;;
4274;SDS011;2151;50.988;11.068;2023-01-24T00:24:30;182.80;;;22.80;;
4274;SDS011;2151;50.988;11.068;2023-01-24T00:26:59;176.87;;;22.27;;
4274;SDS011;2151;50.988;11.068;2023-01-24T00:29:25;179.20;;;24.80;;
4274;SDS011;2151;50.988;11.068;2023-01-24T00:31:52;174.53;;;24.17;;
4274;SDS011;2151;50.988;11.068;2023-01-24T00:34:19;178.20;;;22.50;;
4274;SDS011;2151;50.988;11.068;2023-01-24T00:36:45;178.70;;;23.10;;
4274;SDS011;2151;50.988;11.068;2023-01-24T00:39:12;179.07;;;23.90;;
4274;SDS011;2151;50.988;11.068;2023-01-24T00:41:38;189.73;;;24.93;;
4274;SDS011;2151;50.988;11.068;2023-01-24T00:44:05;182.57;;;25.00;;
4274;SDS011;2151;50.988;11.068;2023-01-24T00:46:32;177.63;;;23.13;;
4274;SDS011;2151;50.988;11.068;2023-01-24T00:48:58;179.10;;;24.00;;
4274;SDS011;2151;50.988;11.068;2023-01-24T00:51:26;185.50;;;25.00;;
4274;SDS011;2151;50.988;11.068;2023-01-24T00:53:53;184.37;;;23.87;;
4274;SDS011;2151;50.988;11.068;2023-01-24T00:56:20;177.70;;;23.70;;
4274;SDS011;2151;50.988;11.068;2023-01-24T00:58:46;184.67;;;26.33;;
4274;SDS011;2151;50.988;11.068;2023-01-24T01:01:13;183.43;;;25.43;;
4274;SDS011;2151;50.988;11.068;2023-01-24T01:03:39;181.00;;;23.50;;
4274;SDS011;2151;50.988;11.068;2023-01-24T01:06:09;178.70;;;23.20;;
4274;SDS011;2151;50.988;11.068;2023-01-24T01:08:37;175.73;;;24.40;;
4274;SDS011;2151;50.988;11.068;2023-01-24T01:11:04;175.80;;;23.47;;
4274;SDS011;2151;50.988;11.068;2023-01-24T01:13:31;178.83;;;22.77;;
4274;SDS011;2151;50.988;11.068;2023-01-24T01:16:02;179.73;;;24.17;;
4274;SDS011;2151;50.988;11.068;2023-01-24T01:18:30;177.20;;;23.07;;
4274;SDS011;2151;50.988;11.068;2023-01-24T01:20:57;178.63;;;24.57;;
4274;SDS011;2151;50.988;11.068;2023-01-24T01:23:23;178.27;;;23.50;;
4274;SDS011;2151;50.988;11.068;2023-01-24T01:25:50;176.67;;;23.93;;
4274;SDS011;2151;50.988;11.068;2023-01-24T01:28:17;178.23;;;24.80;;
4274;SDS011;2151;50.988;11.068;2023-01-24T01:30:48;185.63;;;25.50;;
4274;SDS011;2151;50.988;11.068;2023-01-24T01:33:15;180.93;;;24.43;;
4274;SDS011;2151;50.988;11.068;2023-01-24T01:35:42;178.17;;;24.53;;
4274;SDS011;2151;50.988;11.068;2023-01-24T01:38:08;184.10;;;25.33;;
4274;SDS011;2151;50.988;11.068;2023-01-24T01:40:35;179.03;;;24.20;;
4274;SDS011;2151;50.988;11.068;2023-01-24T01:43:02;184.20;;;24.10;;
4274;SDS011;2151;50.988;11.068;2023-01-24T01:47:58;179.70;;;23.90;;
4274;SDS011;2151;50.988;11.068;2023-01-24T01:50:29;178.80;;;25.10;;
4274;SDS011;2151;50.988;11.068;2023-01-24T01:52:56;181.67;;;25.13;;
4274;SDS011;2151;50.988;11.068;2023-01-24T01:55:24;174.50;;;23.77;;
4274;SDS011;2151;50.988;11.068;2023-01-24T01:57:52;176.30;;;25.43;;
4274;SDS011;2151;50.988;11.068;2023-01-24T02:00:20;175.00;;;24.37;;
4274;SDS011;2151;50.988;11.068;2023-01-24T02:02:48;179.20;;;24.57;;
4274;SDS011;2151;50.988;11.068;2023-01-24T02:05:19;170.60;;;23.83;;
4274;SDS011;2151;50.988;11.068;2023-01-24T02:07:57;174.37;;;24.90;;
4274;SDS011;2151;50.988;11.068;2023-01-24T02:10:26;177.97;;;24.03;;
4274;SDS011;2151;50.988;11.068;2023-01-24T02:13:13;167.90;;;23.03;;
4274;SDS011;2151;50.988;11.068;2023-01-24T02:15:40;173.67;;;22.50;;
4274;SDS011;2151;50.988;11.068;2023-01-24T02:18:27;175.80;;;24.33;;
4274;SDS011;2151;50.988;11.068;2023-01-24T02:20:54;173.53;;;23.00;;
4274;SDS011;2151;50.988;11.068;2023-01-24T02:23:24;172.37;;;23.73;;
4274;SDS011;2151;50.988;11.068;2023-01-24T02:26:14;171.37;;;23.53;;
4274;SDS011;2151;50.988;11.068;2023-01-24T02:31:22;165.83;;;22.17;;
4274;SDS011;2151;50.988;11.068;2023-01-24T02:33:48;165.97;;;21.67;;
4274;SDS011;2151;50.988;11.068;2023-01-24T02:36:32;158.07;;;17.83;;
4274;SDS011;2151;50.988;11.068;2023-01-24T02:41:41;154.77;;;17.97;;
4274;SDS011;2151;50.988;11.068;2023-01-24T02:44:12;156.80;;;17.70;;
4274;SDS011;2151;50.988;11.068;2023-01-24T02:46:43;153.10;;;17.73;;
4274;SDS011;2151;50.988;11.068;2023-01-24T02:49:10;155.07;;;18.03;;
4274;SDS011;2151;50.988;11.068;2023-01-24T02:51:37;153.37;;;16.33;;
4274;SDS011;2151;50.988;11.068;2023-01-24T02:54:22;149.80;;;15.93;;
4274;SDS011;2151;50.988;11.068;2023-01-24T02:56:49;149.77;;;15.63;;
4274;SDS011;2151;50.988;11.068;2023-01-24T02:59:34;150.47;;;15.73;;
4274;SDS011;2151;50.988;11.068;2023-01-24T03:02:00;151.83;;;15.63;;
4274;SDS011;2151;50.988;11.068;2023-01-24T03:04:27;145.60;;;14.50;;
4274;SDS011;2151;50.988;11.068;2023-01-24T03:06:54;144.37;;;13.63;;
4274;SDS011;2151;50.988;11.068;2023-01-24T03:09:20;148.00;;;13.50;;
4274;SDS011;2151;50.988;11.068;2023-01-24T03:12:00;156.03;;;18.40;;
4274;SDS011;2151;50.988;11.068;2023-01-24T03:14:47;161.97;;;19.13;;
4274;SDS011;2151;50.988;11.068;2023-01-24T03:17:32;156.07;;;16.40;;
4274;SDS011;2151;50.988;11.068;2023-01-24T03:20:17;157.67;;;19.50;;
4274;SDS011;2151;50.988;11.068;2023-01-24T03:23:03;156.37;;;19.73;;
4274;SDS011;2151;50.988;11.068;2023-01-24T03:25:48;157.07;;;19.77;;
4274;SDS011;2151;50.988;11.068;2023-01-24T03:28:38;160.67;;;21.13;;
4274;SDS011;2151;50.988;11.068;2023-01-24T03:31:24;171.27;;;23.13;;
4274;SDS011;2151;50.988;11.068;2023-01-24T03:34:10;160.57;;;20.03;;
4274;SDS011;2151;50.988;11.068;2023-01-24T03:36:55;158.97;;;20.47;;
4274;SDS011;2151;50.988;11.068;2023-01-24T03:39:21;158.53;;;21.57;;
4274;SDS011;2151;50.988;11.068;2023-01-24T03:42:07;160.47;;;19.97;;
4274;SDS011;2151;50.988;11.068;2023-01-24T03:44:33;156.87;;;18.30;;
4274;SDS011;2151;50.988;11.068;2023-01-24T03:47:00;159.40;;;18.70;;
4274;SDS011;2151;50.988;11.068;2023-01-24T03:49:26;155.40;;;17.20;;
4274;SDS011;2151;50.988;11.068;2023-01-24T03:52:12;156.00;;;18.03;;
4274;SDS011;2151;50.988;11.068;2023-01-24T03:54:57;155.20;;;18.20;;
4274;SDS011;2151;50.988;11.068;2023-01-24T03:57:25;153.30;;;17.90;;
4274;SDS011;2151;50.988;11.068;2023-01-24T03:59:52;154.27;;;16.17;;
4274;SDS011;2151;50.988;11.068;2023-01-24T04:02:19;149.93;;;16.33;;
4274;SDS011;2151;50.988;11.068;2023-01-24T04:04:46;147.43;;;13.70;;
4274;SDS011;2151;50.988;11.068;2023-01-24T04:07:31;144.57;;;13.30;;
4274;SDS011;2151;50.988;11.068;2023-01-24T04:09:58;143.67;;;11.90;;
4274;SDS011;2151;50.988;11.068;2023-01-24T04:12:25;142.70;;;13.23;;
4274;SDS011;2151;50.988;11.068;2023-01-24T04:14:52;142.47;;;11.77;;
4274;SDS011;2151;50.988;11.068;2023-01-24T04:17:19;142.10;;;12.10;;
4274;SDS011;2151;50.988;11.068;2023-01-24T04:19:45;146.37;;;12.50;;
4274;SDS011;2151;50.988;11.068;2023-01-24T04:22:12;139.77;;;10.67;;
4274;SDS011;2151;50.988;11.068;2023-01-24T04:24:38;143.17;;;12.97;;
4274;SDS011;2151;50.988;11.068;2023-01-24T04:27:05;142.67;;;12.30;;
4274;SDS011;2151;50.988;11.068;2023-01-24T04:29:32;145.10;;;13.07;;
4274;SDS011;2151;50.988;11.068;2023-01-24T04:31:58;144.07;;;13.10;;
4274;SDS011;2151;50.988;11.068;2023-01-24T04:34:25;145.50;;;14.37;;
4274;SDS011;2151;50.988;11.068;2023-01-24T04:36:51;151.37;;;15.90;;
4274;SDS011;2151;50.988;11.068;2023-01-24T04:39:18;147.57;;;14.13;;
4274;SDS011;2151;50.988;11.068;2023-01-24T04:41:44;147.73;;;14.37;;
4274;SDS011;2151;50.988;11.068;2023-01-24T04:44:11;144.10;;;13.23;;
4274;SDS011;2151;50.988;11.068;2023-01-24T04:46:37;143.17;;;12.53;;
4274;SDS011;2151;50.988;11.068;2023-01-24T04:49:04;143.10;;;12.67;;
4274;SDS011;2151;50.988;11.068;2023-01-24T04:51:30;144.90;;;13.23;;
4274;SDS011;2151;50.988;11.068;2023-01-24T04:53:57;147.57;;;12.90;;
4274;SDS011;2151;50.988;11.068;2023-01-24T04:56:24;144.97;;;13.17;;
4274;SDS011;2151;50.988;11.068;2023-01-24T04:58:50;146.67;;;14.10;;
4274;SDS011;2151;50.988;11.068;2023-01-24T05:01:17;147.67;;;14.30;;
4274;SDS011;2151;50.988;11.068;2023-01-24T05:03:43;148.40;;;15.40;;
4274;SDS011;2151;50.988;11.068;2023-01-24T05:06:10;149.77;;;16.00;;
4274;SDS011;2151;50.988;11.068;2023-01-24T05:08:47;146.67;;;14.43;;
4274;SDS011;2151;50.988;11.068;2023-01-24T05:11:16;145.47;;;13.20;;
4274;SDS011;2151;50.988;11.068;2023-01-24T05:13:43;144.93;;;13.97;;
4274;SDS011;2151;50.988;11.068;2023-01-24T05:16:10;146.83;;;15.07;;
4274;SDS011;2151;50.988;11.068;2023-01-24T05:18:37;146.27;;;14.60;;
4274;SDS011;2151;50.988;11.068;2023-01-24T05:21:04;143.50;;;13.27;;
4274;SDS011;2151;50.988;11.068;2023-01-24T05:23:35;141.80;;;12.87;;
4274;SDS011;2151;50.988;11.068;2023-01-24T05:26:02;144.67;;;13.23;;
4274;SDS011;2151;50.988;11.068;2023-01-24T05:28:29;145.57;;;14.07;;
4274;SDS011;2151;50.988;11.068;2023-01-24T05:31:00;146.47;;;14.43;;
4274;SDS011;2151;50.988;11.068;2023-01-24T05:33:28;151.37;;;16.93;;
4274;SDS011;2151;50.988;11.068;2023-01-24T05:36:02;151.30;;;16.60;;
4274;SDS011;2151;50.988;11.068;2023-01-24T05:38:31;151.57;;;18.17;;
4274;SDS011;2151;50.988;11.068;2023-01-24T05:41:02;151.60;;;16.00;;
4274;SDS011;2151;50.988;11.068;2023-01-24T05:43:30;148.40;;;15.33;;
4274;SDS011;2151;50.988;11.068;2023-01-24T05:46:04;152.50;;;16.33;;
4274;SDS011;2151;50.988;11.068;2023-01-24T05:48:51;151.70;;;16.37;;
4274;SDS011;2151;50.988;11.068;2023-01-24T05:51:19;146.47;;;14.80;;
4274;SDS011;2151;50.988;11.068;2023-01-24T05:53:46;153.10;;;16.33;;
4274;SDS011;2151;50.988;11.068;2023-01-24T05:56:13;155.60;;;16.30;;
4274;SDS011;2151;50.988;11.068;2023-01-24T05:58:42;153.57;;;16.80;;
4274;SDS011;2151;50.988;11.068;2023-01-24T06:01:10;154.17;;;17.53;;
4274;SDS011;2151;50.988;11.068;2023-01-24T06:03:39;152.33;;;17.27;;
4274;SDS011;2151;50.988;11.068;2023-01-24T06:06:07;147.40;;;15.40;;
4274;SDS011;2151;50.988;11.068;2023-01-24T06:08:35;143.10;;;13.17;;
4274;SDS011;2151;50.988;11.068;2023-01-24T06:11:09;145.50;;;14.17;;
4274;SDS011;2151;50.988;11.068;2023-01-24T06:13:38;143.07;;;13.20;;
4274;SDS011;2151;50.988;11.068;2023-01-24T06:16:24;147.87;;;15.60;;
4274;SDS011;2151;50.988;11.068;2023-01-24T06:18:51;149.73;;;16.87;;
4274;SDS011;2151;50.988;11.068;2023-01-24T06:24:24;153.60;;;17.60;;
4274;SDS011;2151;50.988;11.068;2023-01-24T06:26:52;152.63;;;17.63;;
4274;SDS011;2151;50.988;11.068;2023-01-24T06:29:20;155.27;;;18.90;;
4274;SDS011;2151;50.988;11.068;2023-01-24T06:37:28;161.60;;;20.07;;
4274;SDS011;2151;50.988;11.068;2023-01-24T06:40:04;156.27;;;19.17;;
4274;SDS011;2151;50.988;11.068;2023-01-24T06:42:34;153.30;;;17.20;;
4274;SDS011;2151;50.988;11.068;2023-01-24T06:45:00;153.50;;;17.67;;
4274;SDS011;2151;50.988;11.068;2023-01-24T06:47:27;149.17;;;16.47;;
4274;SDS011;2151;50.988;11.068;2023-01-24T06:49:54;149.27;;;15.10;;
4274;SDS011;2151;50.988;11.068;2023-01-24T06:52:21;148.87;;;15.37;;
4274;SDS011;2151;50.988;11.068;2023-01-24T06:54:48;151.07;;;16.97;;
4274;SDS011;2151;50.988;11.068;2023-01-24T06:57:15;150.20;;;17.10;;
4274;SDS011;2151;50.988;11.068;2023-01-24T06:59:42;153.77;;;17.10;;
4274;SDS011;2151;50.988;11.068;2023-01-24T07:02:11;146.43;;;15.33;;
4274;SDS011;2151;50.988;11.068;2023-01-24T07:04:38;144.43;;;14.03;;
4274;SDS011;2151;50.988;11.068;2023-01-24T07:07:04;146.07;;;14.07;;
4274;SDS011;2151;50.988;11.068;2023-01-24T07:09:34;147.47;;;15.70;;
4274;SDS011;2151;50.988;11.068;2023-01-24T07:12:00;145.40;;;13.67;;
4274;SDS011;2151;50.988;11.068;2023-01-24T07:14:27;143.10;;;13.40;;
4274;SDS011;2151;50.988;11.068;2023-01-24T07:16:53;144.80;;;14.07;;
4274;SDS011;2151;50.988;11.068;2023-01-24T07:19:21;143.97;;;13.13;;
4274;SDS011;2151;50.988;11.068;2023-01-24T07:21:50;142.50;;;13.03;;
4274;SDS011;2151;50.988;11.068;2023-01-24T07:24:20;141.70;;;12.33;;
4274;SDS011;2151;50.988;11.068;2023-01-24T07:26:47;144.47;;;13.27;;
4274;SDS011;2151;50.988;11.068;2023-01-24T07:29:17;145.07;;;13.97;;
4274;SDS011;2151;50.988;11.068;2023-01-24T07:31:44;143.80;;;14.43;;
4274;SDS011;2151;50.988;11.068;2023-01-24T07:34:11;146.60;;;15.10;;
4274;SDS011;2151;50.988;11.068;2023-01-24T07:36:42;146.53;;;15.40;;
4274;SDS011;2151;50.988;11.068;2023-01-24T07:39:09;151.27;;;16.90;;
4274;SDS011;2151;50.988;11.068;2023-01-24T07:41:36;150.37;;;16.90;;
4274;SDS011;2151;50.988;11.068;2023-01-24T07:44:03;151.60;;;17.17;;
4274;SDS011;2151;50.988;11.068;2023-01-24T07:46:32;154.17;;;18.00;;
4274;SDS011;2151;50.988;11.068;2023-01-24T07:48:59;158.20;;;18.70;;
4274;SDS011;2151;50.988;11.068;2023-01-24T07:51:26;152.80;;;17.97;;
4274;SDS011;2151;50.988;11.068;2023-01-24T07:53:53;152.43;;;17.57;;
4274;SDS011;2151;50.988;11.068;2023-01-24T07:56:19;153.33;;;16.43;;
4274;SDS011;2151;50.988;11.068;2023-01-24T07:58:51;154.60;;;18.17;;
4274;SDS011;2151;50.988;11.068;2023-01-24T08:01:18;156.60;;;19.57;;
4274;SDS011;2151;50.988;11.068;2023-01-24T08:03:46;158.80;;;19.60;;
4274;SDS011;2151;50.988;11.068;2023-01-24T08:06:12;155.07;;;19.10;;
4274;SDS011;2151;50.988;11.068;2023-01-24T08:08:39;155.03;;;18.43;;
4274;SDS011;2151;50.988;11.068;2023-01-24T08:11:06;157.23;;;19.80;;
4274;SDS011;2151;50.988;11.068;2023-01-24T08:13:33;157.30;;;19.70;;
4274;SDS011;2151;50.988;11.068;2023-01-24T08:15:59;160.03;;;18.57;;
4274;SDS011;2151;50.988;11.068;2023-01-24T08:18:27;154.87;;;19.47;;
4274;SDS011;2151;50.988;11.068;2023-01-24T08:20:54;157.23;;;19.33;;
4274;SDS011;2151;50.988;11.068;2023-01-24T08:23:23;158.13;;;20.00;;
4274;SDS011;2151;50.988;11.068;2023-01-24T08:25:50;155.40;;;19.37;;
4274;SDS011;2151;50.988;11.068;2023-01-24T08:28:17;165.87;;;19.87;;
4274;SDS011;2151;50.988;11.068;2023-01-24T08:30:43;159.80;;;19.20;;
4274;SDS011;2151;50.988;11.068;2023-01-24T08:33:10;157.03;;;19.40;;
4274;SDS011;2151;50.988;11.068;2023-01-24T08:35:41;156.67;;;19.03;;
4274;SDS011;2151;50.988;11.068;2023-01-24T08:38:08;164.27;;;20.10;;
4274;SDS011;2151;50.988;11.068;2023-01-24T08:40:34;161.77;;;20.13;;
4274;SDS011;2151;50.988;11.068;2023-01-24T08:43:13;164.23;;;21.73;;
4274;SDS011;2151;50.988;11.068;2023-01-24T08:45:40;160.77;;;20.27;;
4274;SDS011;2151;50.988;11.068;2023-01-24T08:48:06;156.87;;;20.20;;
4274;SDS011;2151;50.988;11.068;2023-01-24T08:50:33;169.50;;;21.63;;
4274;SDS011;2151;50.988;11.068;2023-01-24T08:52:59;158.43;;;19.93;;
4274;SDS011;2151;50.988;11.068;2023-01-24T08:55:26;159.27;;;19.83;;
4274;SDS011;2151;50.988;11.068;2023-01-24T08:58:00;164.80;;;20.77;;
4274;SDS011;2151;50.988;11.068;2023-01-24T09:00:27;162.67;;;21.07;;
4274;SDS011;2151;50.988;11.068;2023-01-24T09:02:54;158.60;;;19.97;;
4274;SDS011;2151;50.988;11.068;2023-01-24T09:05:20;164.77;;;20.47;;
4274;SDS011;2151;50.988;11.068;2023-01-24T09:07:47;168.17;;;23.57;;
4274;SDS011;2151;50.988;11.068;2023-01-24T09:10:14;167.07;;;22.27;;
4274;SDS011;2151;50.988;11.068;2023-01-24T09:12:40;161.03;;;18.77;;
4274;SDS011;2151;50.988;11.068;2023-01-24T09:15:08;165.10;;;22.60;;
4274;SDS011;2151;50.988;11.068;2023-01-24T09:17:36;161.07;;;20.80;;
4274;SDS011;2151;50.988;11.068;2023-01-24T09:20:03;164.37;;;21.47;;
4274;SDS011;2151;50.988;11.068;2023-01-24T09:22:31;165.73;;;21.30;;
4274;SDS011;2151;50.988;11.068;2023-01-24T09:24:58;165.00;;;21.33;;
4274;SDS011;2151;50.988;11.068;2023-01-24T09:27:25;164.47;;;21.17;;
4274;SDS011;2151;50.988;11.068;2023-01-24T09:29:51;162.67;;;21.87;;
4274;SDS011;2151;50.988;11.068;2023-01-24T09:32:18;162.37;;;19.97;;
4274;SDS011;2151;50.988;11.068;2023-01-24T09:34:46;161.13;;;21.10;;
4274;SDS011;2151;50.988;11.068;2023-01-24T09:37:17;159.93;;;20.40;;
4274;SDS011;2151;50.988;11.068;2023-01-24T09:39:44;160.00;;;20.77;;
4274;SDS011;2151;50.988;11.068;2023-01-24T09:47:51;160.03;;;20.10;;
4274;SDS011;2151;50.988;11.068;2023-01-24T09:53:04;157.47;;;20.57;;
4274;SDS011;2151;50.988;11.068;2023-01-24T09:55:32;168.87;;;21.50;;
4274;SDS011;2151;50.988;11.068;2023-01-24T09:58:02;161.40;;;20.70;;
4274;SDS011;2151;50.988;11.068;2023-01-24T10:00:31;163.27;;;20.17;;
4274;SDS011;2151;50.988;11.068;2023-01-24T10:03:01;162.80;;;22.47;;
4274;SDS011;2151;50.988;11.068;2023-01-24T10:05:34;160.33;;;20.13;;
4274;SDS011;2151;50.988;11.068;2023-01-24T10:08:12;163.17;;;20.20;;
4274;SDS011;2151;50.988;11.068;2023-01-24T10:10:45;164.93;;;19.53;;
4274;SDS011;2151;50.988;11.068;2023-01-24T10:24:47;164.83;;;20.93;;
4274;SDS011;2151;50.988;11.068;2023-01-24T10:27:32;161.40;;;20.97;;
4274;SDS011;2151;50.988;11.068;2023-01-24T10:30:08;164.57;;;20.73;;
4274;SDS011;2151;50.988;11.068;2023-01-24T10:32:40;162.60;;;21.30;;
4274;SDS011;2151;50.988;11.068;2023-01-24T10:35:14;163.70;;;21.83;;
4274;SDS011;2151;50.988;11.068;2023-01-24T10:38:04;159.53;;;20.47;;
4274;SDS011;2151;50.988;11.068;2023-01-24T10:40:33;159.67;;;21.47;;
4274;SDS011;2151;50.988;11.068;2023-01-24T10:43:04;159.67;;;20.70;;
4274;SDS011;2151;50.988;11.068;2023-01-24T10:48:11;157.33;;;20.60;;
4274;SDS011;2151;50.988;11.068;2023-01-24T10:50:44;168.13;;;21.40;;
4274;SDS011;2151;50.988;11.068;2023-01-24T10:53:12;158.17;;;19.43;;
4274;SDS011;2151;50.988;11.068;2023-01-24T10:55:58;160.57;;;21.70;;
4274;SDS011;2151;50.988;11.068;2023-01-24T10:58:26;160.67;;;21.13;;
4274;SDS011;2151;50.988;11.068;2023-01-24T11:00:55;160.37;;;21.97;;
4274;SDS011;2151;50.988;11.068;2023-01-24T11:03:26;159.30;;;20.80;;
4274;SDS011;2151;50.988;11.068;2023-01-24T11:05:56;159.47;;;21.10;;
4274;SDS011;2151;50.988;11.068;2023-01-24T11:08:24;160.40;;;22.63;;
4274;SDS011;2151;50.988;11.068;2023-01-24T11:10:56;160.93;;;20.50;;
4274;SDS011;2151;50.988;11.068;2023-01-24T11:13:37;157.87;;;20.13;;
4274;SDS011;2151;50.988;11.068;2023-01-24T11:18:55;155.87;;;19.60;;
4274;SDS011;2151;50.988;11.068;2023-01-24T11:21:23;161.60;;;20.53;;
4274;SDS011;2151;50.988;11.068;2023-01-24T11:26:53;158.27;;;19.03;;
4274;SDS011;2151;50.988;11.068;2023-01-24T11:29:21;158.87;;;20.43;;
4274;SDS011;2151;50.988;11.068;2023-01-24T11:31:50;157.77;;;21.10;;
4274;SDS011;2151;50.988;11.068;2023-01-24T11:42:37;156.10;;;18.37;;
4274;SDS011;2151;50.988;11.068;2023-01-24T11:45:22;156.77;;;19.57;;
4274;SDS011;2151;50.988;11.068;2023-01-24T11:48:20;157.93;;;19.50;;
4274;SDS011;2151;50.988;11.068;2023-01-24T11:51:22;162.13;;;19.17;;
4274;SDS011;2151;50.988;11.068;2023-01-24T11:54:21;157.40;;;19.00;;
4274;SDS011;2151;50.988;11.068;2023-01-24T11:57:02;152.77;;;17.60;;
4274;SDS011;2151;50.988;11.068;2023-01-24T12:02:23;157.07;;;18.07;;
4274;SDS011;2151;50.988;11.068;2023-01-24T12:05:29;151.87;;;16.57;;
4274;SDS011;2151;50.988;11.068;2023-01-24T12:11:05;156.30;;;19.23;;
4274;SDS011;2151;50.988;11.068;2023-01-24T12:14:15;150.77;;;16.97;;
4274;SDS011;2151;50.988;11.068;2023-01-24T12:22:10;162.10;;;19.27;;
4274;SDS011;2151;50.988;11.068;2023-01-24T12:24:40;158.67;;;21.20;;
4274;SDS011;2151;50.988;11.068;2023-01-24T12:27:14;156.77;;;20.43;;
4274;SDS011;2151;50.988;11.068;2023-01-24T12:29:56;162.00;;;17.87;;
4274;SDS011;2151;50.988;11.068;2023-01-24T12:32:26;156.97;;;19.10;;
4274;SDS011;2151;50.988;11.068;2023-01-24T12:54:16;158.53;;;19.77;;
4274;SDS011;2151;50.988;11.068;2023-01-24T12:56:46;159.03;;;19.20;;
4274;SDS011;2151;50.988;11.068;2023-01-24T12:59:26;153.33;;;19.57;;
4274;SDS011;2151;50.988;11.068;2023-01-24T13:12:51;157.33;;;19.07;;
4274;SDS011;2151;50.988;11.068;2023-01-24T13:15:20;157.03;;;19.63;;
4274;SDS011;2151;50.988;11.068;2023-01-24T13:20:44;164.20;;;21.87;;
4274;SDS011;2151;50.988;11.068;2023-01-24T13:31:56;159.43;;;20.90;;
4274;SDS011;2151;50.988;11.068;2023-01-24T13:34:37;157.67;;;19.97;;
4274;SDS011;2151;50.988;11.068;2023-01-24T13:37:14;163.63;;;20.73;;
4274;SDS011;2151;50.988;11.068;2023-01-24T13:39:43;162.07;;;21.20;;
4274;SDS011;2151;50.988;11.068;2023-01-24T13:44:38;164.40;;;20.30;;
4274;SDS011;2151;50.988;11.068;2023-01-24T13:55:04;163.97;;;21.47;;
4274;SDS011;2151;50.988;11.068;2023-01-24T13:57:43;159.27;;;20.67;;
4274;SDS011;2151;50.988;11.068;2023-01-24T14:08:02;155.77;;;18.80;;
4274;SDS011;2151;50.988;11.068;2023-01-24T14:10:49;163.47;;;20.60;;
4274;SDS011;2151;50.988;11.068;2023-01-24T14:16:09;162.57;;;20.10;;
4274;SDS011;2151;50.988;11.068;2023-01-24T14:18:58;158.97;;;19.93;;
4274;SDS011;2151;50.988;11.068;2023-01-24T14:21:52;163.70;;;19.27;;
4274;SDS011;2151;50.988;11.068;2023-01-24T14:27:24;170.47;;;22.20;;
4274;SDS011;2151;50.988;11.068;2023-01-24T14:29:54;162.93;;;21.17;;
4274;SDS011;2151;50.988;11.068;2023-01-24T14:32:25;162.50;;;20.80;;
4274;SDS011;2151;50.988;11.068;2023-01-24T14:35:02;160.13;;;20.80;;
4274;SDS011;2151;50.988;11.068;2023-01-24T14:37:46;162.77;;;21.40;;
4274;SDS011;2151;50.988;11.068;2023-01-24T14:40:24;161.37;;;19.97;;
4274;SDS011;2151;50.988;11.068;2023-01-24T14:42:57;163.97;;;21.13;;
4274;SDS011;2151;50.988;11.068;2023-01-24T14:45:29;159.73;;;20.67;;
4274;SDS011;2151;50.988;11.068;2023-01-24T14:47:58;159.90;;;20.27;;
4274;SDS011;2151;50.988;11.068;2023-01-24T14:50:27;165.57;;;22.90;;
4274;SDS011;2151;50.988;11.068;2023-01-24T14:52:57;160.83;;;20.00;;
4274;SDS011;2151;50.988;11.068;2023-01-24T14:58:14;162.70;;;21.93;;
4274;SDS011;2151;50.988;11.068;2023-01-24T15:00:44;161.17;;;20.50;;
4274;SDS011;2151;50.988;11.068;2023-01-24T15:03:15;163.80;;;21.30;;
4274;SDS011;2151;50.988;11.068;2023-01-24T15:05:55;162.97;;;20.57;;
4274;SDS011;2151;50.988;11.068;2023-01-24T15:08:23;158.07;;;21.00;;
4274;SDS011;2151;50.988;11.068;2023-01-24T15:11:02;165.40;;;21.77;;
4274;SDS011;2151;50.988;11.068;2023-01-24T15:13:35;164.97;;;21.07;;
4274;SDS011;2151;50.988;11.068;2023-01-24T15:16:08;169.93;;;21.60;;
4274;SDS011;2151;50.988;11.068;2023-01-24T15:18:43;165.77;;;21.07;;
4274;SDS011;2151;50.988;11.068;2023-01-24T15:21:24;163.50;;;20.67;;
4274;SDS011;2151;50.988;11.068;2023-01-24T15:23:57;161.67;;;21.30;;
4274;SDS011;2151;50.988;11.068;2023-01-24T15:28:54;167.13;;;22.30;;
4274;SDS011;2151;50.988;11.068;2023-01-24T15:31:22;168.20;;;22.20;;
4274;SDS011;2151;50.988;11.068;2023-01-24T15:33:54;158.03;;;19.80;;
4274;SDS011;2151;50.988;11.068;2023-01-24T15:38:53;167.47;;;20.10;;
4274;SDS011;2151;50.988;11.068;2023-01-24T15:41:30;166.77;;;21.47;;
4274;SDS011;2151;50.988;11.068;2023-01-24T15:44:20;160.37;;;20.50;;
4274;SDS011;2151;50.988;11.068;2023-01-24T15:46:53;168.00;;;21.47;;
4274;SDS011;2151;50.988;11.068;2023-01-24T15:49:42;163.60;;;21.10;;
4274;SDS011;2151;50.988;11.068;2023-01-24T15:52:23;164.97;;;20.20;;
4274;SDS011;2151;50.988;11.068;2023-01-24T15:54:54;160.90;;;22.40;;
4274;SDS011;2151;50.988;11.068;2023-01-24T15:57:31;165.47;;;22.00;;
4274;SDS011;2151;50.988;11.068;2023-01-24T16:02:34;172.83;;;23.70;;
4274;SDS011;2151;50.988;11.068;2023-01-24T16:05:01;174.40;;;25.23;;
4274;SDS011;2151;50.988;11.068;2023-01-24T16:07:27;168.57;;;24.80;;
4274;SDS011;2151;50.988;11.068;2023-01-24T16:09:54;169.93;;;25.60;;
4274;SDS011;2151;50.988;11.068;2023-01-24T16:12:22;184.47;;;28.63;;
4274;SDS011;2151;50.988;11.068;2023-01-24T16:14:50;178.17;;;25.57;;
4274;SDS011;2151;50.988;11.068;2023-01-24T16:17:34;169.00;;;24.43;;
4274;SDS011;2151;50.988;11.068;2023-01-24T16:20:01;172.13;;;25.20;;
4274;SDS011;2151;50.988;11.068;2023-01-24T16:22:30;174.10;;;25.93;;
4274;SDS011;2151;50.988;11.068;2023-01-24T16:24:57;180.37;;;27.00;;
4274;SDS011;2151;50.988;11.068;2023-01-24T16:27:23;168.53;;;24.40;;
4274;SDS011;2151;50.988;11.068;2023-01-24T16:29:50;169.83;;;23.57;;
4274;SDS011;2151;50.988;11.068;2023-01-24T16:32:18;169.50;;;23.00;;
4274;SDS011;2151;50.988;11.068;2023-01-24T16:34:47;172.60;;;22.40;;
4274;SDS011;2151;50.988;11.068;2023-01-24T16:37:14;163.17;;;22.80;;
4274;SDS011;2151;50.988;11.068;2023-01-24T16:39:40;169.27;;;22.50;;
4274;SDS011;2151;50.988;11.068;2023-01-24T16:42:07;167.40;;;21.80;;
4274;SDS011;2151;50.988;11.068;2023-01-24T16:44:41;168.57;;;22.60;;
4274;SDS011;2151;50.988;11.068;2023-01-24T16:47:09;170.60;;;26.00;;
4274;SDS011;2151;50.988;11.068;2023-01-24T16:49:36;167.83;;;22.27;;
4274;SDS011;2151;50.988;11.068;2023-01-24T16:52:02;169.00;;;24.20;;
4274;SDS011;2151;50.988;11.068;2023-01-24T16:54:44;163.13;;;22.47;;
4274;SDS011;2151;50.988;11.068;2023-01-24T16:57:11;174.03;;;24.30;;
4274;SDS011;2151;50.988;11.068;2023-01-24T16:59:37;167.27;;;23.07;;
4274;SDS011;2151;50.988;11.068;2023-01-24T17:02:04;161.77;;;21.17;;
4274;SDS011;2151;50.988;11.068;2023-01-24T17:04:31;162.90;;;21.83;;